Time;durP1;ratioP1;P1;durP2;ratioP2;P2;SDS_P1;SDS_P2;PMS_P1;PMS_P2;Temp;Humidity;BMP_temperature;BMP_pressure;BME280_temperature;BME280_humidity;BME280_pressure;Samples;Min_cycle;Max_cycle;Signal;HPM_P1;HPM_P2
2023/06/17 00:02:01;;;;;;;7.30;4.93;;;;;;;16.81;55.94;101598.69;5084837;28;20119;-69
2023/06/17 00:04:27;;;;;;;5.97;4.28;;;;;;;16.84;56.51;101609.13;5084951;28;20042;-69
2023/06/17 00:06:52;;;;;;;6.95;4.50;;;;;;;16.81;56.59;101602.19;5086145;28;20451;-69
2023/06/17 00:09:17;;;;;;;7.30;4.35;;;;;;;16.76;56.52;101608.53;5083984;28;20483;-69
2023/06/17 00:11:42;;;;;;;7.25;4.60;;;;;;;16.72;57.08;101602.47;5084387;28;20030;-70
2023/06/17 00:14:08;;;;;;;9.50;4.78;;;;;;;16.62;57.22;101603.75;5082671;28;20070;-70
2023/06/17 00:16:36;;;;;;;9.18;4.88;;;;;;;16.61;57.77;101599.38;5083737;28;20032;-69
2023/06/17 00:19:04;;;;;;;8.38;4.80;;;;;;;16.56;56.76;101591.66;5087114;28;20056;-69
2023/06/17 00:21:30;;;;;;;7.43;5.10;;;;;;;16.42;57.36;101586.03;5083231;28;20024;-69
2023/06/17 00:23:55;;;;;;;7.47;5.03;;;;;;;16.44;57.33;101586.81;5091625;28;20387;-70
2023/06/17 00:26:21;;;;;;;5.68;4.75;;;;;;;16.37;57.02;101580.94;5085883;28;20028;-69
2023/06/17 00:28:46;;;;;;;8.55;5.22;;;;;;;16.31;56.85;101575.03;5084414;28;20085;-69
2023/06/17 00:31:12;;;;;;;6.57;4.80;;;;;;;16.32;56.12;101585.50;5085337;28;20031;-69
2023/06/17 00:33:37;;;;;;;7.10;5.55;;;;;;;16.28;56.44;101572.50;5076294;28;20393;-69
2023/06/17 00:36:03;;;;;;;5.53;5.00;;;;;;;16.19;56.93;101576.34;5085729;28;20178;-69
2023/06/17 00:38:28;;;;;;;9.68;5.82;;;;;;;16.12;56.84;101575.69;5083631;28;20384;-70
2023/06/17 00:40:53;;;;;;;6.50;5.18;;;;;;;16.13;56.80;101574.78;5082445;28;20451;-69
2023/06/17 00:43:19;;;;;;;10.07;5.03;;;;;;;16.07;57.00;101582.88;5079429;28;20452;-69
2023/06/17 00:45:44;;;;;;;9.60;5.50;;;;;;;16.01;57.32;101582.22;5079345;28;20444;-69
2023/06/17 00:48:10;;;;;;;8.10;5.80;;;;;;;15.96;57.39;101587.66;5085942;28;20063;-69
2023/06/17 00:50:36;;;;;;;8.60;6.22;;;;;;;15.92;57.92;101586.00;5068663;28;20042;-69
2023/06/17 00:53:02;;;;;;;12.40;5.30;;;;;;;15.80;59.01;101579.41;5087765;28;20040;-70
2023/06/17 00:55:27;;;;;;;9.48;6.03;;;;;;;15.81;58.95;101585.53;5081413;28;20077;-69
2023/06/17 00:57:53;;;;;;;8.73;5.25;;;;;;;15.73;59.14;101583.16;5087407;28;20464;-70
2023/06/17 01:00:19;;;;;;;7.65;5.95;;;;;;;15.75;59.57;101591.84;5075807;28;20457;-69
2023/06/17 01:02:46;;;;;;;8.73;6.00;;;;;;;15.71;58.72;101579.72;5081248;28;20031;-69
2023/06/17 01:05:14;;;;;;;10.82;6.05;;;;;;;15.67;58.87;101583.38;5082135;28;20027;-69
2023/06/17 01:08:04;;;;;;;10.57;6.43;;;;;;;15.63;58.38;101579.94;5076175;28;20032;-69
2023/06/17 01:10:58;;;;;;;10.38;6.10;;;;;;;15.56;59.15;101582.81;5081399;28;20393;-69
2023/06/17 01:13:26;;;;;;;9.20;6.07;;;;;;;15.53;60.03;101583.78;5078604;28;20082;-70
2023/06/17 01:15:52;;;;;;;7.65;6.32;;;;;;;15.48;59.75;101577.81;5082510;28;20028;-69
2023/06/17 01:18:19;;;;;;;7.00;5.72;;;;;;;15.45;60.75;101577.91;5078308;28;20037;-69
2023/06/17 01:20:48;;;;;;;8.88;6.00;;;;;;;15.29;61.09;101571.41;5080739;28;20032;-69
2023/06/17 01:23:15;;;;;;;7.38;6.60;;;;;;;15.19;61.61;101576.94;5083955;28;20020;-69
2023/06/17 01:25:41;;;;;;;7.57;6.45;;;;;;;15.15;63.00;101574.47;5080218;28;20040;-70
2023/06/17 01:28:19;;;;;;;9.65;5.93;;;;;;;15.19;62.62;101578.72;5077634;28;20032;-70
2023/06/17 01:30:54;;;;;;;8.98;6.07;;;;;;;15.14;63.05;101584.13;5078978;28;20067;-69
2023/06/17 01:33:20;;;;;;;9.80;6.40;;;;;;;15.07;63.94;101582.56;5077465;28;20055;-69
2023/06/17 01:36:11;;;;;;;8.48;6.00;;;;;;;14.99;64.13;101574.09;5080093;28;20036;-69
2023/06/17 01:38:48;;;;;;;10.55;7.05;;;;;;;14.90;64.48;101569.97;5081644;28;20047;-70
2023/06/17 01:41:19;;;;;;;9.38;6.38;;;;;;;14.89;64.93;101562.16;5065123;28;20127;-70
2023/06/17 01:43:45;;;;;;;8.35;6.25;;;;;;;14.84;65.45;101569.28;5078039;28;20028;-69
2023/06/17 01:46:15;;;;;;;9.30;6.60;;;;;;;14.83;66.01;101572.81;5079739;28;20032;-69
2023/06/17 01:48:41;;;;;;;8.52;6.70;;;;;;;14.78;66.21;101569.47;5079616;28;20039;-69
2023/06/17 01:51:07;;;;;;;8.80;6.30;;;;;;;14.69;66.93;101560.97;5070970;28;20460;-69
2023/06/17 01:53:32;;;;;;;11.68;6.57;;;;;;;14.73;67.00;101574.84;5071858;28;20027;-69
2023/06/17 01:55:58;;;;;;;10.65;6.18;;;;;;;14.63;67.84;101581.28;5073692;28;20037;-69
2023/06/17 01:58:23;;;;;;;8.68;6.43;;;;;;;14.50;69.10;101565.88;5071280;28;20128;-69
2023/06/17 02:00:49;;;;;;;8.73;6.65;;;;;;;14.54;69.08;101576.28;5071590;28;20032;-69
2023/06/17 02:03:15;;;;;;;8.82;7.22;;;;;;;14.53;69.54;101570.19;5073951;28;20017;-69
2023/06/17 02:05:41;;;;;;;9.20;6.30;;;;;;;14.52;70.17;101578.97;5081979;28;20081;-69
2023/06/17 02:08:07;;;;;;;9.68;6.65;;;;;;;14.44;70.49;101562.53;5080599;28;20103;-69
2023/06/17 02:10:33;;;;;;;7.82;7.03;;;;;;;14.48;70.83;101572.03;5083925;28;20482;-69
2023/06/17 02:13:01;;;;;;;9.13;6.63;;;;;;;14.34;72.00;101567.16;5082137;28;20107;-69
2023/06/17 02:15:27;;;;;;;9.50;6.95;;;;;;;14.28;72.45;101565.56;5088315;28;20593;-69
2023/06/17 02:17:53;;;;;;;10.90;7.32;;;;;;;14.32;72.06;101560.25;5080100;28;20107;-69
2023/06/17 02:20:18;;;;;;;8.88;7.28;;;;;;;14.24;73.30;101558.69;5080570;28;20029;-69
2023/06/17 02:22:44;;;;;;;9.25;7.15;;;;;;;14.19;73.98;101565.84;5086033;28;20071;-69
2023/06/17 02:25:09;;;;;;;10.40;7.55;;;;;;;14.14;74.68;101554.59;5074964;28;20111;-69
2023/06/17 02:27:34;;;;;;;11.07;7.15;;;;;;;14.10;74.71;101552.97;5085709;28;20095;-69
2023/06/17 02:30:00;;;;;;;8.82;6.53;;;;;;;14.07;75.11;101558.28;5082338;28;20396;-69
2023/06/17 02:32:27;;;;;;;8.63;7.05;;;;;;;14.12;75.23;101553.78;5085932;28;20027;-69
2023/06/17 02:34:53;;;;;;;11.13;7.53;;;;;;;14.12;75.26;101551.16;5080897;28;20031;-69
2023/06/17 02:37:18;;;;;;;10.23;7.15;;;;;;;14.05;75.26;101541.72;5083787;28;20114;-69
2023/06/17 02:39:43;;;;;;;9.25;7.15;;;;;;;14.02;76.22;101547.91;5082553;28;20111;-69
2023/06/17 02:42:11;;;;;;;8.20;6.78;;;;;;;13.99;76.17;101548.00;5082390;28;20114;-70
2023/06/17 02:44:36;;;;;;;10.55;7.43;;;;;;;13.97;76.61;101548.97;5083472;28;20099;-69
2023/06/17 02:47:02;;;;;;;11.52;7.20;;;;;;;13.91;77.41;101546.50;5081856;28;20128;-69
2023/06/17 02:49:27;;;;;;;13.23;7.68;;;;;;;13.87;77.79;101552.72;5078398;28;20028;-70
2023/06/17 02:51:53;;;;;;;13.40;7.80;;;;;;;13.84;77.81;101542.31;5076673;28;20043;-69
2023/06/17 02:54:18;;;;;;;9.82;7.60;;;;;;;13.76;78.69;101551.22;5083236;28;20410;-69
2023/06/17 02:56:44;;;;;;;11.50;6.78;;;;;;;13.69;78.98;101535.69;5078513;28;20036;-69
2023/06/17 02:59:09;;;;;;;9.45;7.68;;;;;;;13.59;79.57;101541.16;5077256;28;20021;-69
2023/06/17 03:01:42;;;;;;;10.70;7.22;;;;;;;13.53;80.59;101550.94;5082995;28;20024;-69
2023/06/17 03:04:08;;;;;;;12.10;7.20;;;;;;;13.50;80.64;101549.22;5080713;28;20036;-69
2023/06/17 03:06:33;;;;;;;10.50;7.65;;;;;;;13.39;81.32;101545.16;5082762;28;20035;-69
2023/06/17 03:09:00;;;;;;;10.63;8.00;;;;;;;13.37;81.46;101544.34;5081748;28;20024;-69
2023/06/17 03:11:28;;;;;;;9.35;8.02;;;;;;;13.32;82.54;101534.84;5081669;28;20487;-70
2023/06/17 03:13:54;;;;;;;8.80;7.78;;;;;;;13.21;82.96;101534.22;5076522;28;20065;-69
2023/06/17 03:16:19;;;;;;;11.13;8.73;;;;;;;13.12;83.25;101537.03;5077517;28;20021;-69
2023/06/17 03:18:45;;;;;;;10.43;8.43;;;;;;;13.06;82.72;101534.56;5072183;28;20020;-69
2023/06/17 03:21:10;;;;;;;11.88;8.60;;;;;;;13.13;82.72;101538.75;5079614;28;20150;-69
2023/06/17 03:23:35;;;;;;;10.00;8.57;;;;;;;13.20;83.19;101539.47;5080908;28;20040;-69
2023/06/17 03:26:01;;;;;;;11.18;8.52;;;;;;;13.27;82.46;101535.84;5086286;28;20024;-69
2023/06/17 03:28:26;;;;;;;11.95;8.15;;;;;;;13.30;82.11;101541.84;5071035;28;20044;-70
2023/06/17 03:30:52;;;;;;;11.45;7.90;;;;;;;13.27;82.90;101539.31;5089111;28;20028;-69
2023/06/17 03:33:17;;;;;;;8.82;7.93;;;;;;;13.20;83.51;101531.63;5081104;28;20025;-69
2023/06/17 03:35:42;;;;;;;10.77;8.32;;;;;;;13.20;83.88;101529.84;5090220;28;20031;-70
2023/06/17 03:38:09;;;;;;;9.52;8.00;;;;;;;13.19;84.42;101541.22;5083130;28;20115;-69
2023/06/17 03:40:34;;;;;;;10.70;8.55;;;;;;;13.04;85.80;101521.50;5080762;28;20043;-69
2023/06/17 03:43:00;;;;;;;9.43;8.27;;;;;;;13.02;85.79;101528.53;5082986;28;20028;-69
2023/06/17 03:45:25;;;;;;;12.52;8.45;;;;;;;12.98;85.57;101537.34;5086481;28;20099;-69
2023/06/17 03:47:50;;;;;;;9.35;7.75;;;;;;;13.03;85.84;101534.63;5084874;28;20112;-69
2023/06/17 03:50:16;;;;;;;17.42;8.55;;;;;;;13.05;86.60;101525.00;5077260;28;20456;-69
2023/06/17 03:52:41;;;;;;;11.65;7.95;;;;;;;13.05;85.82;101525.00;5082342;28;20107;-70
2023/06/17 03:55:07;;;;;;;14.60;8.23;;;;;;;13.01;85.83;101534.63;5083424;28;20111;-69
2023/06/17 03:57:32;;;;;;;10.77;8.30;;;;;;;12.99;86.38;101536.44;5079194;28;20059;-69
2023/06/17 03:59:57;;;;;;;13.20;7.97;;;;;;;13.03;85.37;101529.38;5083028;28;20031;-69
2023/06/17 04:02:23;;;;;;;8.38;7.55;;;;;;;13.06;84.27;101527.56;5072600;28;20024;-69
2023/06/17 04:04:52;;;;;;;10.68;7.78;;;;;;;13.10;85.55;101528.34;5091158;28;20027;-69
2023/06/17 04:07:18;;;;;;;11.88;7.57;;;;;;;13.13;86.26;101531.75;5085405;28;20061;-69
2023/06/17 04:09:43;;;;;;;11.85;7.97;;;;;;;13.14;85.59;101530.00;5086009;28;20059;-69
2023/06/17 04:12:09;;;;;;;10.10;8.38;;;;;;;13.17;84.89;101514.22;5077121;28;20021;-69
2023/06/17 04:14:34;;;;;;;11.32;8.77;;;;;;;13.37;84.64;101523.38;5080457;28;20106;-70
2023/06/17 04:17:00;;;;;;;10.57;7.80;;;;;;;13.44;84.82;101517.09;5078460;28;20472;-69
2023/06/17 04:19:25;;;;;;;14.00;8.35;;;;;;;13.55;84.73;101521.19;5080630;28;20107;-69
2023/06/17 04:21:50;;;;;;;10.85;8.35;;;;;;;13.65;83.40;101531.44;5086043;28;20028;-70
2023/06/17 04:24:16;;;;;;;10.77;8.35;;;;;;;13.62;83.45;101528.88;5084509;28;20054;-70
2023/06/17 04:26:44;;;;;;;11.30;8.73;;;;;;;13.63;83.05;101528.84;5083918;28;20531;-69
2023/06/17 04:29:10;;;;;;;9.82;8.70;;;;;;;13.66;83.08;101539.25;5085430;28;20400;-70
2023/06/17 04:31:40;;;;;;;14.77;9.25;;;;;;;13.73;82.56;101534.72;5082518;28;20033;-70
2023/06/17 04:34:05;;;;;;;11.30;8.95;;;;;;;13.78;83.67;101536.31;5085207;28;20020;-70
2023/06/17 04:36:30;;;;;;;11.88;8.93;;;;;;;13.81;83.57;101531.00;5083105;28;20035;-69
2023/06/17 04:38:55;;;;;;;11.23;9.05;;;;;;;13.87;83.63;101526.50;5083786;28;20028;-70
2023/06/17 04:41:21;;;;;;;11.55;9.25;;;;;;;14.01;82.91;101527.00;5086532;28;20457;-70
2023/06/17 04:43:48;;;;;;;14.27;9.43;;;;;;;14.09;83.13;101534.66;5080380;28;20040;-69
2023/06/17 04:46:16;;;;;;;11.15;9.30;;;;;;;14.14;82.48;101538.88;5088069;28;20021;-70
2023/06/17 04:48:42;;;;;;;11.73;9.10;;;;;;;14.19;82.18;101537.00;5079053;28;20039;-70
2023/06/17 04:51:07;;;;;;;13.85;9.95;;;;;;;14.22;81.98;101523.81;5081788;28;20395;-69
2023/06/17 04:53:32;;;;;;;12.25;9.68;;;;;;;14.31;81.80;101532.31;5081471;28;20503;-70
2023/06/17 04:55:58;;;;;;;13.13;9.23;;;;;;;14.48;82.58;101535.28;5089127;28;20114;-69
2023/06/17 04:58:23;;;;;;;13.75;10.27;;;;;;;14.46;82.29;101529.25;5080960;28;20487;-69
2023/06/17 05:00:48;;;;;;;11.68;10.18;;;;;;;14.60;81.89;101542.84;5075714;28;20145;-70
2023/06/17 05:03:13;;;;;;;15.02;10.70;;;;;;;14.72;80.55;101539.88;5088352;28;20118;-69
2023/06/17 05:05:39;;;;;;;16.60;10.95;;;;;;;14.84;79.91;101543.03;5080852;28;20032;-70
2023/06/17 05:08:05;;;;;;;14.20;10.70;;;;;;;14.93;79.83;101542.75;5081607;28;20028;-69
2023/06/17 05:10:30;;;;;;;13.02;11.45;;;;;;;15.04;80.43;101545.94;5082293;28;20418;-70
2023/06/17 05:12:55;;;;;;;14.32;12.45;;;;;;;15.14;79.77;101550.00;5081548;28;20024;-69
2023/06/17 05:15:20;;;;;;;15.88;12.38;;;;;;;15.17;80.36;101531.50;5087229;28;20053;-70
2023/06/17 05:17:46;;;;;;;17.08;14.65;;;;;;;15.39;78.81;101546.56;5074626;28;20035;-69
2023/06/17 05:20:11;;;;;;;20.60;15.98;;;;;;;15.50;77.35;101556.72;5085597;28;20459;-69
2023/06/17 05:22:36;;;;;;;21.90;16.67;;;;;;;15.56;78.04;101553.91;5082031;28;20046;-70
2023/06/17 05:25:02;;;;;;;24.48;17.75;;;;;;;15.53;77.94;101535.59;5084243;28;20023;-69
2023/06/17 05:27:28;;;;;;;22.73;17.90;;;;;;;15.72;77.75;101549.03;5083834;28;20028;-70
2023/06/17 05:29:54;;;;;;;21.83;17.17;;;;;;;15.81;78.32;101546.09;5079233;28;20067;-70
2023/06/17 05:32:19;;;;;;;23.63;17.92;;;;;;;15.92;77.63;101549.19;5072458;28;20020;-69
2023/06/17 05:34:45;;;;;;;21.17;17.50;;;;;;;15.97;78.48;101549.91;5076300;28;20086;-69
2023/06/17 05:37:10;;;;;;;19.65;16.85;;;;;;;16.02;80.21;101542.75;5084176;28;20034;-69
2023/06/17 05:39:35;;;;;;;20.38;17.00;;;;;;;16.12;80.00;101554.66;5082820;28;20024;-70
2023/06/17 05:42:00;;;;;;;20.92;16.95;;;;;;;16.17;79.44;101541.31;5079337;28;20052;-69
2023/06/17 05:44:26;;;;;;;20.30;16.15;;;;;;;16.30;76.92;101549.63;5081899;28;20034;-70
2023/06/17 05:46:51;;;;;;;22.73;16.50;;;;;;;16.39;76.85;101549.31;5076899;28;20029;-70
2023/06/17 05:49:16;;;;;;;17.80;15.60;;;;;;;16.45;77.67;101553.47;5076095;28;20020;-69
2023/06/17 05:51:42;;;;;;;18.52;15.60;;;;;;;16.58;75.31;101549.50;5078782;28;20024;-70
2023/06/17 05:54:07;;;;;;;15.90;14.23;;;;;;;16.63;76.37;101547.53;5083328;28;20559;-69
2023/06/17 05:56:32;;;;;;;18.77;15.07;;;;;;;16.61;75.66;101533.56;5081231;28;20033;-69
2023/06/17 05:58:58;;;;;;;15.77;13.90;;;;;;;16.77;76.86;101549.66;5081212;28;20028;-69
2023/06/17 06:01:23;;;;;;;19.60;15.65;;;;;;;16.84;74.86;101548.56;5079614;28;20027;-69
2023/06/17 06:03:49;;;;;;;16.92;15.13;;;;;;;16.83;74.47;101531.00;5081924;28;20024;-70
2023/06/17 06:06:14;;;;;;;18.15;15.63;;;;;;;17.00;74.72;101540.88;5081784;28;20024;-70
2023/06/17 06:08:39;;;;;;;16.35;14.52;;;;;;;17.10;74.47;101544.88;5084040;28;20387;-70
2023/06/17 06:11:05;;;;;;;16.17;14.18;;;;;;;17.14;73.26;101543.84;5081651;28;20028;-70
2023/06/17 06:13:30;;;;;;;14.73;13.13;;;;;;;17.27;74.03;101546.84;5077120;28;20086;-69
2023/06/17 06:15:55;;;;;;;15.55;12.43;;;;;;;17.31;73.66;101543.16;5083512;28;20079;-70
2023/06/17 06:18:21;;;;;;;15.50;12.40;;;;;;;17.40;72.43;101534.03;5071362;28;20025;-70
2023/06/17 06:20:46;;;;;;;17.13;14.25;;;;;;;17.51;71.95;101547.63;5086240;28;20033;-70
2023/06/17 06:23:11;;;;;;;15.43;12.07;;;;;;;17.61;71.83;101540.19;5078900;28;20024;-70
2023/06/17 06:25:37;;;;;;;17.98;13.30;;;;;;;17.70;69.22;101538.03;5077788;28;20013;-70
2023/06/17 06:28:03;;;;;;;14.82;11.30;;;;;;;17.79;71.00;101539.47;5074266;28;20024;-70
2023/06/17 06:30:29;;;;;;;13.95;11.75;;;;;;;17.74;68.64;101517.66;5082026;28;20515;-70
2023/06/17 06:32:54;;;;;;;16.88;12.57;;;;;;;17.96;68.64;101538.75;5078983;28;20590;-69
2023/06/17 06:35:20;;;;;;;13.48;11.02;;;;;;;17.98;64.66;101529.84;5079646;28;20024;-69
2023/06/17 06:37:45;;;;;;;12.27;10.70;;;;;;;18.02;65.39;101526.13;5083552;28;20031;-69
2023/06/17 06:40:10;;;;;;;17.52;10.75;;;;;;;18.14;63.06;101539.69;5070151;28;20020;-69
2023/06/17 06:42:36;;;;;;;14.43;10.00;;;;;;;18.21;61.96;101541.13;5084175;28;20483;-70
2023/06/17 06:45:02;;;;;;;11.63;9.07;;;;;;;18.24;59.14;101533.09;5081110;28;20049;-69
2023/06/17 06:47:28;;;;;;;13.43;9.82;;;;;;;18.34;58.33;101546.72;5081668;28;20023;-70
2023/06/17 06:49:53;;;;;;;13.68;9.50;;;;;;;18.43;57.76;101544.53;5075118;28;20058;-70
2023/06/17 06:52:18;;;;;;;15.18;10.20;;;;;;;18.51;57.58;101538.94;5072032;28;20121;-70
2023/06/17 06:54:44;;;;;;;13.82;10.23;;;;;;;18.64;57.26;101541.88;5079271;28;20035;-70
2023/06/17 06:57:09;;;;;;;11.38;9.82;;;;;;;18.69;54.90;101543.34;5082035;28;20167;-70
2023/06/17 06:59:34;;;;;;;12.63;9.70;;;;;;;18.78;56.38;101541.25;5077905;28;20812;-69
2023/06/17 07:02:00;;;;;;;13.95;10.00;;;;;;;18.74;54.38;101526.47;5061711;28;20039;-71
2023/06/17 07:04:26;;;;;;;10.27;8.63;;;;;;;18.89;53.62;101537.16;5083532;28;20456;-71
2023/06/17 07:06:51;;;;;;;13.43;9.23;;;;;;;19.00;53.79;101544.59;5086978;28;20078;-70
2023/06/17 07:09:17;;;;;;;14.55;8.63;;;;;;;19.13;53.03;101539.59;5077481;28;20024;-71
2023/06/17 07:11:42;;;;;;;15.25;8.95;;;;;;;19.20;52.57;101542.78;5073528;28;20467;-71
2023/06/17 07:14:07;;;;;;;11.77;8.75;;;;;;;19.24;53.23;101537.28;5075321;28;20480;-71
2023/06/17 07:16:32;;;;;;;13.82;9.85;;;;;;;19.30;50.99;101536.97;5078679;28;20035;-70
2023/06/17 07:18:58;;;;;;;10.77;8.77;;;;;;;19.32;51.76;101524.53;5074830;28;20024;-70
2023/06/17 07:21:23;;;;;;;12.88;8.02;;;;;;;19.55;52.55;101543.69;5081575;28;20480;-69
2023/06/17 07:23:48;;;;;;;21.20;8.85;;;;;;;19.64;49.69;101543.25;5072580;28;20031;-69
2023/06/17 07:26:14;;;;;;;9.82;7.43;;;;;;;19.72;48.12;101543.75;5083102;28;20484;-70
2023/06/17 07:28:39;;;;;;;12.30;8.07;;;;;;;19.81;49.48;101548.53;5084458;28;20052;-70
2023/06/17 07:31:05;;;;;;;12.48;9.35;;;;;;;19.86;49.64;101533.31;5080386;28;20021;-70
2023/06/17 07:33:31;;;;;;;10.32;8.60;;;;;;;19.95;47.70;101536.44;5081746;28;20024;-70
2023/06/17 07:35:56;;;;;;;11.27;7.90;;;;;;;20.09;48.60;101539.19;5087469;28;20112;-70
2023/06/17 07:38:23;;;;;;;11.10;7.72;;;;;;;20.18;48.25;101538.72;5075274;28;20431;-70
2023/06/17 07:40:49;;;;;;;10.07;7.00;;;;;;;20.21;45.37;101540.31;5089543;28;20471;-70
2023/06/17 07:43:14;;;;;;;11.05;7.80;;;;;;;20.28;45.52;101539.09;5076015;28;20047;-71
2023/06/17 07:45:39;;;;;;;9.88;6.53;;;;;;;20.38;47.87;101539.47;5084550;28;20027;-72
2023/06/17 07:48:05;;;;;;;11.23;7.90;;;;;;;20.51;48.61;101525.50;5071684;28;20036;-71
2023/06/17 07:50:30;;;;;;;10.85;7.65;;;;;;;20.63;49.15;101542.50;5068867;28;20384;-72
2023/06/17 07:52:57;;;;;;;13.18;8.70;;;;;;;20.68;46.50;101526.38;5076282;28;20111;-73
2023/06/17 07:55:22;;;;;;;9.10;7.32;;;;;;;20.73;46.69;101525.19;5075099;28;20361;-71
2023/06/17 07:57:47;;;;;;;11.30;7.07;;;;;;;20.92;47.13;101519.69;5085893;28;20024;-71
2023/06/17 08:00:13;;;;;;;8.75;7.05;;;;;;;21.05;46.07;101527.81;5080424;28;20035;-72
2023/06/17 08:02:42;;;;;;;8.70;7.10;;;;;;;21.27;48.15;101528.31;5077107;28;20039;-72
2023/06/17 08:05:08;;;;;;;11.65;7.70;;;;;;;21.36;45.10;101520.81;5088780;28;20028;-72
2023/06/17 08:07:34;;;;;;;12.65;8.30;;;;;;;21.39;45.42;101523.28;5077910;28;20032;-72
2023/06/17 08:09:59;;;;;;;11.18;7.90;;;;;;;21.35;44.16;101516.41;5086797;28;20027;-81
2023/06/17 08:12:25;;;;;;;8.38;6.50;;;;;;;21.45;44.57;101525.56;5075116;28;20017;-72
2023/06/17 08:14:51;;;;;;;9.27;7.15;;;;;;;21.59;44.51;101517.66;5084732;28;20488;-81
2023/06/17 08:17:16;;;;;;;9.15;6.90;;;;;;;21.64;44.30;101514.72;5085364;28;20039;-81
2023/06/17 08:19:42;;;;;;;7.95;7.10;;;;;;;21.74;42.97;101510.56;5081879;28;20443;-81
2023/06/17 08:22:08;;;;;;;8.73;7.75;;;;;;;21.82;42.05;101508.31;5085628;28;20082;-81
2023/06/17 08:24:33;;;;;;;9.68;7.13;;;;;;;21.88;42.45;101509.75;5083189;28;20028;-80
2023/06/17 08:26:58;;;;;;;8.23;6.38;;;;;;;22.04;44.96;101510.53;5080003;28;20514;-74
2023/06/17 08:29:25;;;;;;;9.60;6.45;;;;;;;22.20;44.32;101521.97;5079858;28;20079;-74
2023/06/17 08:31:51;;;;;;;7.85;6.82;;;;;;;22.30;40.02;101516.94;5075974;28;20100;-69
2023/06/17 08:34:17;;;;;;;14.10;7.45;;;;;;;22.34;40.37;101505.16;5080475;28;20044;-69
2023/06/17 08:36:49;;;;;;;8.98;6.88;;;;;;;22.37;40.71;101499.66;5070854;28;20469;-69
2023/06/17 08:39:15;;;;;;;9.93;7.20;;;;;;;22.61;41.09;101510.53;5085820;28;20038;-68
2023/06/17 08:41:42;;;;;;;11.02;7.38;;;;;;;22.71;42.01;101504.63;5070064;28;20021;-68
2023/06/17 08:44:12;;;;;;;8.25;6.50;;;;;;;22.76;41.97;101499.88;5077050;28;20038;-68
2023/06/17 08:46:38;;;;;;;12.73;6.13;;;;;;;22.91;39.51;101505.03;5064670;28;20044;-68
2023/06/17 08:49:07;;;;;;;9.88;7.03;;;;;;;23.02;40.39;101503.53;5070859;28;20352;-68
2023/06/17 08:51:32;;;;;;;9.23;7.05;;;;;;;23.18;40.10;101506.88;5069717;28;20031;-67
2023/06/17 08:54:00;;;;;;;10.73;6.50;;;;;;;23.29;37.88;101506.19;5066981;28;20020;-67
2023/06/17 08:56:25;;;;;;;11.50;6.72;;;;;;;23.36;38.41;101497.69;5067315;28;20099;-68
2023/06/17 08:58:55;;;;;;;7.78;6.65;;;;;;;23.45;40.83;101485.59;5080054;28;20036;-68
2023/06/17 09:01:21;;;;;;;10.13;7.03;;;;;;;23.71;38.96;101502.47;5079204;28;20065;-68
2023/06/17 09:03:50;;;;;;;16.20;7.00;;;;;;;23.77;38.74;101507.38;5084573;28;20035;-68
2023/06/17 09:06:16;;;;;;;8.25;7.00;;;;;;;23.73;35.98;101505.03;5082394;28;20526;-68
2023/06/17 09:08:44;;;;;;;9.60;6.25;;;;;;;23.80;37.48;101495.66;5084633;28;20065;-68
2023/06/17 09:11:13;;;;;;;10.18;6.75;;;;;;;23.93;36.54;101503.66;5081543;28;20029;-68
2023/06/17 09:13:38;;;;;;;9.25;7.13;;;;;;;24.09;36.37;101500.78;5083851;28;20066;-68
2023/06/17 09:16:07;;;;;;;7.55;6.28;;;;;;;24.26;37.45;101498.66;5084132;28;20052;-68
2023/06/17 09:18:33;;;;;;;9.32;7.00;;;;;;;24.29;35.82;101502.88;5082782;28;20033;-68
2023/06/17 09:20:59;;;;;;;8.18;6.95;;;;;;;24.49;36.48;101497.03;5085389;28;20039;-68
2023/06/17 09:23:24;;;;;;;10.95;7.28;;;;;;;24.51;34.90;101504.91;5081305;28;20017;-68
2023/06/17 09:26:03;;;;;;;8.10;7.30;;;;;;;24.48;34.48;101491.81;5085157;28;20468;-68
2023/06/17 09:28:29;;;;;;;8.65;7.10;;;;;;;24.57;34.49;101495.63;5077775;28;20094;-68
2023/06/17 09:30:57;;;;;;;11.27;6.40;;;;;;;24.71;35.99;101504.31;5087872;28;20029;-68
2023/06/17 09:33:25;;;;;;;11.40;6.78;;;;;;;24.65;36.59;101499.41;5076031;28;20062;-69
2023/06/17 09:36:08;;;;;;;9.05;6.53;;;;;;;24.83;34.58;101501.72;5087591;28;20057;-68
2023/06/17 09:38:36;;;;;;;9.43;6.40;;;;;;;24.84;34.99;101503.44;5077462;28;20068;-68
2023/06/17 09:41:02;;;;;;;9.45;6.63;;;;;;;24.90;34.91;101486.97;5087103;28;20796;-68
2023/06/17 09:43:28;;;;;;;9.85;7.32;;;;;;;25.02;34.01;101502.09;5080707;28;20056;-68
2023/06/17 09:46:02;;;;;;;10.93;6.80;;;;;;;25.18;35.39;101497.34;5088265;28;20056;-68
2023/06/17 09:48:37;;;;;;;11.02;7.13;;;;;;;25.26;35.30;101491.41;5080313;28;20020;-68
2023/06/17 09:51:09;;;;;;;7.07;6.32;;;;;;;25.38;36.26;101493.16;5085985;28;20024;-68
2023/06/17 09:53:42;;;;;;;9.18;6.30;;;;;;;25.48;34.22;101489.81;5080123;28;20029;-68
2023/06/17 09:56:10;;;;;;;;;;;;;;;25.52;35.15;101491.28;5088479;28;20416;-68
2023/06/17 09:58:37;;;;;;;9.50;6.45;;;;;;;25.37;33.88;101490.59;5080500;28;19916;-68
2023/06/17 10:01:11;;;;;;;9.18;5.72;;;;;;;25.55;35.07;101488.38;5076589;28;20021;-68
2023/06/17 10:03:37;;;;;;;10.48;6.88;;;;;;;25.69;32.89;101485.47;5083301;28;20035;-68
2023/06/17 10:06:06;;;;;;;7.32;6.00;;;;;;;25.87;34.20;101486.75;5081702;28;20023;-68
2023/06/17 10:08:35;;;;;;;9.35;6.15;;;;;;;25.96;34.21;101482.50;5066612;28;20028;-68
2023/06/17 10:11:01;;;;;;;9.13;5.60;;;;;;;26.08;32.86;101481.53;5077436;28;20012;-68
2023/06/17 10:13:31;;;;;;;7.10;5.43;;;;;;;26.13;33.92;101474.03;5082513;28;20373;-68
2023/06/17 10:15:59;;;;;;;8.18;5.70;;;;;;;26.21;33.28;101475.25;5083348;28;20024;-68
2023/06/17 10:18:25;;;;;;;9.27;5.43;;;;;;;26.27;33.61;101467.59;5081042;28;20146;-68
2023/06/17 10:20:54;;;;;;;13.80;5.68;;;;;;;26.27;33.54;101459.56;5085813;28;20021;-68
2023/06/17 10:23:21;;;;;;;7.00;5.50;;;;;;;26.44;32.80;101470.72;5080080;28;20157;-68
2023/06/17 10:25:47;;;;;;;6.18;5.18;;;;;;;26.44;31.77;101471.56;5086706;28;20497;-68
2023/06/17 10:28:15;;;;;;;9.10;5.45;;;;;;;26.48;32.06;101472.19;5080501;28;20123;-69
2023/06/17 10:30:43;;;;;;;6.18;5.30;;;;;;;26.66;33.80;101473.38;5086819;28;20421;-68
2023/06/17 10:33:09;;;;;;;5.53;4.88;;;;;;;26.63;32.85;101462.94;5080428;28;20033;-68
2023/06/17 10:35:44;;;;;;;6.60;4.80;;;;;;;26.77;30.69;101457.31;5088633;28;20043;-68
2023/06/17 10:38:27;;;;;;;8.63;4.68;;;;;;;26.88;31.62;101464.47;5081707;28;20368;-68
2023/06/17 10:40:52;;;;;;;16.42;4.97;;;;;;;26.98;32.94;101464.56;5091711;28;20020;-69
2023/06/17 10:43:19;;;;;;;8.83;4.80;;;;;;;27.02;29.34;101463.31;5076871;28;20349;-68
2023/06/17 10:45:50;;;;;;;5.50;4.38;;;;;;;26.98;28.34;101462.72;5091341;28;20270;-68
2023/06/17 10:48:31;;;;;;;6.57;4.45;;;;;;;26.99;30.11;101464.41;5080899;28;20099;-69
2023/06/17 10:51:00;;;;;;;5.25;4.60;;;;;;;27.13;29.86;101455.25;5089277;28;20039;-68
2023/06/17 10:53:28;;;;;;;6.38;4.90;;;;;;;27.26;29.71;101460.44;5083922;28;20472;-69
2023/06/17 10:55:53;;;;;;;8.20;4.65;;;;;;;27.40;29.12;101453.91;5091797;28;20134;-68
2023/06/17 10:58:19;;;;;;;5.07;4.57;;;;;;;27.51;31.00;101457.38;5083079;28;20119;-69
2023/06/17 11:00:45;;;;;;;8.13;4.20;;;;;;;27.63;30.43;101452.81;5082851;28;20021;-68
2023/06/17 11:03:10;;;;;;;8.57;4.22;;;;;;;27.63;29.45;101436.72;5083273;28;20376;-68
2023/06/17 11:05:38;;;;;;;6.30;4.57;;;;;;;27.83;28.81;101451.09;5087792;28;20013;-68
2023/06/17 11:08:07;;;;;;;9.90;5.15;;;;;;;28.04;30.50;101447.53;5083823;28;20029;-68
2023/06/17 11:10:32;;;;;;;5.20;4.63;;;;;;;28.28;31.15;101439.13;5083116;28;20054;-68
2023/06/17 11:12:58;;;;;;;6.03;4.35;;;;;;;28.37;31.00;101441.00;5083386;28;20467;-68
2023/06/17 11:15:23;;;;;;;7.25;5.10;;;;;;;28.45;30.37;101442.06;5089971;28;20106;-68
2023/06/17 11:17:59;;;;;;;5.70;4.82;;;;;;;28.51;30.01;101435.25;5083446;28;20072;-68